Terminal Aerodrome Forecast
Issued by NWS

Home | Current Version | Previous Version | Text Only | Print | Product List | Glossary On
Versions: 1 2 3 4 5 6 7 8 9 10 11 12 13
000
FTUS46 KPDT 190520
TAFBDN
TAF
KBDN 190520Z 1906/2006 20013KT P6SM SCT200
     FM191400 21016KT P6SM OVC090
     FM192200 22015KT P6SM -RA OVC040=

USA.gov is the U.S. government's official web portal to all federal, state and local government web resources and services.